Lindenwald, Ohio
Current Conditions -  °F | °C
As of 2:53 PM on Wednesday 28 Jan 2015 (Local Time) from KHAO Reporting Station
Clear Clear  
Wind Chill: 29°   Ceiling: Unl
Heat Index: 35°   Visibility: 10mi
Dew Point: 18°   Wind: 7mph
Humidity: 50%   Direction: NA
Pressure: 30.29"   Gusts: NA
Location:  39.3622°N, 84.5372°W
Report Text: KHAO 281953Z AUTO VRB06KT 10SM CLR 02/M08 A3029 RMK AO2 SLP267 T00171078
Loading
Personal Weather Stations






























Interactive Weather Map New forecast layout! Learn more

10-Day Weather Forecast

Advertisements
Track Severe Weather on mobile